sensor_id;sensor_type;location;lat;lon;timestamp;pressure;altitude;pressure_sealevel;temperature;humidity
77979;BME280;67169;50.268;8.694;2024-03-25T00:00:06;98756.28;;;5.62;80.36
77979;BME280;67169;50.268;8.694;2024-03-25T00:02:36;98758.88;;;5.64;80.48
77979;BME280;67169;50.268;8.694;2024-03-25T00:05:02;98752.63;;;5.65;80.40
77979;BME280;67169;50.268;8.694;2024-03-25T00:07:28;98754.69;;;5.57;80.45
77979;BME280;67169;50.268;8.694;2024-03-25T00:09:54;98760.78;;;5.60;80.55
77979;BME280;67169;50.268;8.694;2024-03-25T00:12:20;98753.00;;;5.54;80.69
77979;BME280;67169;50.268;8.694;2024-03-25T00:14:48;98760.28;;;5.49;81.00
77979;BME280;67169;50.268;8.694;2024-03-25T00:17:13;98768.19;;;5.52;81.02
77979;BME280;67169;50.268;8.694;2024-03-25T00:19:40;98753.50;;;5.39;81.36
77979;BME280;67169;50.268;8.694;2024-03-25T00:22:05;98773.50;;;5.52;81.32
77979;BME280;67169;50.268;8.694;2024-03-25T00:24:32;98770.78;;;5.54;81.33
77979;BME280;67169;50.268;8.694;2024-03-25T00:26:57;98771.88;;;5.48;81.16
77979;BME280;67169;50.268;8.694;2024-03-25T00:29:24;98769.91;;;5.53;80.89
77979;BME280;67169;50.268;8.694;2024-03-25T00:31:50;98765.03;;;5.39;81.36
77979;BME280;67169;50.268;8.694;2024-03-25T00:34:17;98771.91;;;5.46;81.31
77979;BME280;67169;50.268;8.694;2024-03-25T00:36:42;98760.84;;;5.32;81.69
77979;BME280;67169;50.268;8.694;2024-03-25T00:39:09;98767.13;;;5.30;82.49
77979;BME280;67169;50.268;8.694;2024-03-25T00:41:35;98788.13;;;5.40;82.46
77979;BME280;67169;50.268;8.694;2024-03-25T00:44:02;98784.72;;;5.35;82.91
77979;BME280;67169;50.268;8.694;2024-03-25T00:46:27;98784.84;;;5.32;83.08
77979;BME280;67169;50.268;8.694;2024-03-25T00:48:55;98792.72;;;5.35;82.94
77979;BME280;67169;50.268;8.694;2024-03-25T00:51:21;98788.63;;;5.25;83.61
77979;BME280;67169;50.268;8.694;2024-03-25T00:53:47;98785.19;;;5.21;83.75
77979;BME280;67169;50.268;8.694;2024-03-25T00:56:12;98788.78;;;5.20;84.05
77979;BME280;67169;50.268;8.694;2024-03-25T00:58:39;98775.13;;;5.03;84.53
77979;BME280;67169;50.268;8.694;2024-03-25T01:01:04;98790.88;;;5.09;85.07
77979;BME280;67169;50.268;8.694;2024-03-25T01:03:31;98792.78;;;5.06;85.33
77979;BME280;67169;50.268;8.694;2024-03-25T01:05:58;98787.59;;;5.01;85.60
77979;BME280;67169;50.268;8.694;2024-03-25T01:08:24;98790.41;;;4.96;85.65
77979;BME280;67169;50.268;8.694;2024-03-25T01:10:50;98781.78;;;4.88;85.77
77979;BME280;67169;50.268;8.694;2024-03-25T01:13:17;98783.66;;;4.85;85.88
77979;BME280;67169;50.268;8.694;2024-03-25T01:15:42;98790.66;;;4.89;85.97
77979;BME280;67169;50.268;8.694;2024-03-25T01:18:08;98795.22;;;4.85;86.15
77979;BME280;67169;50.268;8.694;2024-03-25T01:20:34;98789.97;;;4.82;86.34
77979;BME280;67169;50.268;8.694;2024-03-25T01:23:02;98785.75;;;4.75;86.54
77979;BME280;67169;50.268;8.694;2024-03-25T01:25:27;98783.03;;;4.76;86.38
77979;BME280;67169;50.268;8.694;2024-03-25T01:27:54;98784.69;;;4.81;86.11
77979;BME280;67169;50.268;8.694;2024-03-25T01:30:19;98782.25;;;4.73;86.41
77979;BME280;67169;50.268;8.694;2024-03-25T01:32:46;98780.63;;;4.69;86.43
77979;BME280;67169;50.268;8.694;2024-03-25T01:35:13;98763.28;;;4.54;85.96
77979;BME280;67169;50.268;8.694;2024-03-25T01:37:40;98783.28;;;4.69;85.77
77979;BME280;67169;50.268;8.694;2024-03-25T01:40:08;98782.44;;;4.67;85.72
77979;BME280;67169;50.268;8.694;2024-03-25T01:42:35;98779.25;;;4.54;85.88
77979;BME280;67169;50.268;8.694;2024-03-25T01:45:01;98798.09;;;4.48;85.99
77979;BME280;67169;50.268;8.694;2024-03-25T01:47:28;98772.53;;;4.42;85.89
77979;BME280;67169;50.268;8.694;2024-03-25T01:49:54;98797.81;;;4.57;85.78
77979;BME280;67169;50.268;8.694;2024-03-25T01:52:22;98790.84;;;4.53;86.04
77979;BME280;67169;50.268;8.694;2024-03-25T01:54:48;98797.72;;;4.60;85.86
77979;BME280;67169;50.268;8.694;2024-03-25T01:57:17;98796.72;;;4.64;85.83
77979;BME280;67169;50.268;8.694;2024-03-25T01:59:42;98791.28;;;4.67;85.63
77979;BME280;67169;50.268;8.694;2024-03-25T02:02:09;98790.41;;;4.68;85.64
77979;BME280;67169;50.268;8.694;2024-03-25T02:04:36;98791.28;;;4.67;85.68
77979;BME280;67169;50.268;8.694;2024-03-25T02:07:03;98765.94;;;4.54;85.80
77979;BME280;67169;50.268;8.694;2024-03-25T02:09:29;98801.91;;;4.69;85.94
77979;BME280;67169;50.268;8.694;2024-03-25T02:11:55;98801.91;;;4.69;86.08
77979;BME280;67169;50.268;8.694;2024-03-25T02:14:22;98805.38;;;4.72;85.86
77979;BME280;67169;50.268;8.694;2024-03-25T02:16:49;98805.28;;;4.75;85.81
77979;BME280;67169;50.268;8.694;2024-03-25T02:19:15;98803.56;;;4.73;85.85
77979;BME280;67169;50.268;8.694;2024-03-25T02:21:42;98803.50;;;4.74;85.75
77979;BME280;67169;50.268;8.694;2024-03-25T02:24:09;98801.75;;;4.75;85.77
77979;BME280;67169;50.268;8.694;2024-03-25T02:26:37;98800.84;;;4.74;85.70
77979;BME280;67169;50.268;8.694;2024-03-25T02:29:03;98804.25;;;4.80;85.71
77979;BME280;67169;50.268;8.694;2024-03-25T02:31:29;98800.72;;;4.79;85.73
77979;BME280;67169;50.268;8.694;2024-03-25T02:33:54;98794.47;;;4.80;85.90
77979;BME280;67169;50.268;8.694;2024-03-25T02:36:21;98797.88;;;4.85;85.38
77979;BME280;67169;50.268;8.694;2024-03-25T02:38:47;98795.25;;;4.84;85.14
77979;BME280;67169;50.268;8.694;2024-03-25T02:41:13;98796.81;;;4.91;85.06
77979;BME280;67169;50.268;8.694;2024-03-25T02:43:40;98772.28;;;4.80;85.44
77979;BME280;67169;50.268;8.694;2024-03-25T02:46:07;98794.28;;;4.86;85.47
77979;BME280;67169;50.268;8.694;2024-03-25T02:48:32;98789.38;;;4.72;85.73
77979;BME280;67169;50.268;8.694;2024-03-25T02:50:59;98788.28;;;4.80;85.80
77979;BME280;67169;50.268;8.694;2024-03-25T02:53:24;98784.75;;;4.79;85.69
77979;BME280;67169;50.268;8.694;2024-03-25T02:55:51;98791.75;;;4.82;85.98
77979;BME280;67169;50.268;8.694;2024-03-25T02:58:16;98796.97;;;4.85;86.08
77979;BME280;67169;50.268;8.694;2024-03-25T03:00:44;98782.31;;;4.71;85.98
77979;BME280;67169;50.268;8.694;2024-03-25T03:03:10;98790.19;;;4.74;85.81
77979;BME280;67169;50.268;8.694;2024-03-25T03:05:36;98801.63;;;4.78;85.88
77979;BME280;67169;50.268;8.694;2024-03-25T03:08:02;98806.78;;;4.84;85.66
77979;BME280;67169;50.268;8.694;2024-03-25T03:10:28;98809.06;;;4.67;85.89
77979;BME280;67169;50.268;8.694;2024-03-25T03:12:54;98808.97;;;4.70;86.25
77979;BME280;67169;50.268;8.694;2024-03-25T03:15:21;98811.50;;;4.74;86.32
77979;BME280;67169;50.268;8.694;2024-03-25T03:17:47;98800.03;;;4.72;86.11
77979;BME280;67169;50.268;8.694;2024-03-25T03:20:14;98818.06;;;4.63;86.77
77979;BME280;67169;50.268;8.694;2024-03-25T03:22:40;98815.34;;;4.64;87.23
77979;BME280;67169;50.268;8.694;2024-03-25T03:25:06;98822.88;;;4.50;87.36
77979;BME280;67169;50.268;8.694;2024-03-25T03:27:32;98808.75;;;4.48;87.69
77979;BME280;67169;50.268;8.694;2024-03-25T03:29:58;98811.75;;;4.36;87.38
77979;BME280;67169;50.268;8.694;2024-03-25T03:32:24;98818.81;;;4.37;87.76
77979;BME280;67169;50.268;8.694;2024-03-25T03:34:52;98825.97;;;4.35;87.75
77979;BME280;67169;50.268;8.694;2024-03-25T03:37:17;98823.41;;;4.32;87.84
77979;BME280;67169;50.268;8.694;2024-03-25T03:39:43;98814.50;;;4.33;87.99
77979;BME280;67169;50.268;8.694;2024-03-25T03:42:09;98825.06;;;4.36;87.86
77979;BME280;67169;50.268;8.694;2024-03-25T03:44:35;98828.66;;;4.35;87.98
77979;BME280;67169;50.268;8.694;2024-03-25T03:47:01;98833.03;;;4.36;87.95
77979;BME280;67169;50.268;8.694;2024-03-25T03:49:27;98831.16;;;4.39;87.79
77979;BME280;67169;50.268;8.694;2024-03-25T03:51:54;98823.41;;;4.32;87.66
77979;BME280;67169;50.268;8.694;2024-03-25T03:54:22;98837.63;;;4.31;87.80
77979;BME280;67169;50.268;8.694;2024-03-25T03:56:47;98840.25;;;4.32;88.14
77979;BME280;67169;50.268;8.694;2024-03-25T03:59:14;98827.78;;;4.34;88.13
77979;BME280;67169;50.268;8.694;2024-03-25T04:01:39;98835.09;;;4.26;88.10
77979;BME280;67169;50.268;8.694;2024-03-25T04:04:06;98836.06;;;4.23;88.45
77979;BME280;67169;50.268;8.694;2024-03-25T04:06:31;98830.63;;;4.26;88.52
77979;BME280;67169;50.268;8.694;2024-03-25T04:08:59;98830.97;;;4.14;88.69
77979;BME280;67169;50.268;8.694;2024-03-25T04:11:24;98764.72;;;3.72;89.01
77979;BME280;67169;50.268;8.694;2024-03-25T04:13:51;98820.00;;;3.94;89.09
77979;BME280;67169;50.268;8.694;2024-03-25T04:16:16;98832.38;;;3.95;89.39
77979;BME280;67169;50.268;8.694;2024-03-25T04:18:43;98831.78;;;3.84;89.29
77979;BME280;67169;50.268;8.694;2024-03-25T04:21:11;98827.69;;;3.72;89.90
77979;BME280;67169;50.268;8.694;2024-03-25T04:23:39;98822.66;;;3.60;90.27
77979;BME280;67169;50.268;8.694;2024-03-25T04:26:07;98824.66;;;3.51;90.75
77979;BME280;67169;50.268;8.694;2024-03-25T04:28:34;98829.06;;;3.51;91.03
77979;BME280;67169;50.268;8.694;2024-03-25T04:30:59;98831.03;;;3.44;91.51
77979;BME280;67169;50.268;8.694;2024-03-25T04:33:26;98840.00;;;3.39;91.86
77979;BME280;67169;50.268;8.694;2024-03-25T04:35:51;98832.38;;;3.23;92.64
77979;BME280;67169;50.268;8.694;2024-03-25T04:38:18;98842.06;;;3.27;92.97
77979;BME280;67169;50.268;8.694;2024-03-25T04:40:43;98846.56;;;3.24;93.38
77979;BME280;67169;50.268;8.694;2024-03-25T04:43:10;98844.78;;;3.23;93.50
77979;BME280;67169;50.268;8.694;2024-03-25T04:45:36;98844.72;;;3.27;93.83
77979;BME280;67169;50.268;8.694;2024-03-25T04:48:02;98849.03;;;3.31;94.23
77979;BME280;67169;50.268;8.694;2024-03-25T04:50:27;98834.28;;;3.18;94.04
77979;BME280;67169;50.268;8.694;2024-03-25T04:52:53;98833.38;;;3.19;94.48
77979;BME280;67169;50.268;8.694;2024-03-25T04:55:18;98853.75;;;3.19;94.43
77979;BME280;67169;50.268;8.694;2024-03-25T04:57:44;98839.81;;;3.09;94.90
77979;BME280;67169;50.268;8.694;2024-03-25T05:00:12;98841.47;;;3.15;94.94
77979;BME280;67169;50.268;8.694;2024-03-25T05:02:38;98845.06;;;3.12;94.81
77979;BME280;67169;50.268;8.694;2024-03-25T05:05:04;98847.78;;;3.09;94.85
77979;BME280;67169;50.268;8.694;2024-03-25T05:07:29;98848.75;;;3.05;95.07
77979;BME280;67169;50.268;8.694;2024-03-25T05:09:55;98862.34;;;2.91;95.02
77979;BME280;67169;50.268;8.694;2024-03-25T05:12:20;98839.53;;;2.82;95.22
77979;BME280;67169;50.268;8.694;2024-03-25T05:14:46;98861.53;;;2.88;95.17
77979;BME280;67169;50.268;8.694;2024-03-25T05:17:13;98842.25;;;2.79;95.10
77979;BME280;67169;50.268;8.694;2024-03-25T05:19:38;98862.56;;;2.80;95.17
77979;BME280;67169;50.268;8.694;2024-03-25T05:22:04;98867.94;;;2.77;95.22
77979;BME280;67169;50.268;8.694;2024-03-25T05:24:29;98859.16;;;2.75;95.38
77979;BME280;67169;50.268;8.694;2024-03-25T05:26:55;98863.69;;;2.70;95.51
77979;BME280;67169;50.268;8.694;2024-03-25T05:29:20;98869.09;;;2.64;95.63
77979;BME280;67169;50.268;8.694;2024-03-25T05:31:56;98873.38;;;2.71;95.46
77979;BME280;67169;50.268;8.694;2024-03-25T05:34:23;98864.94;;;2.51;95.35
77979;BME280;67169;50.268;8.694;2024-03-25T05:36:49;98852.00;;;2.35;95.65
77979;BME280;67169;50.268;8.694;2024-03-25T05:39:14;98885.34;;;2.49;95.72
77979;BME280;67169;50.268;8.694;2024-03-25T05:41:40;98891.44;;;2.54;95.88
77979;BME280;67169;50.268;8.694;2024-03-25T05:44:05;98902.03;;;2.54;95.70
77979;BME280;67169;50.268;8.694;2024-03-25T05:46:31;98891.47;;;2.52;96.08
77979;BME280;67169;50.268;8.694;2024-03-25T05:48:57;98900.25;;;2.56;96.28
77979;BME280;67169;50.268;8.694;2024-03-25T05:51:23;98893.06;;;2.61;96.37
77979;BME280;67169;50.268;8.694;2024-03-25T05:53:49;98846.47;;;2.46;96.48
77979;BME280;67169;50.268;8.694;2024-03-25T05:56:14;98845.50;;;2.50;96.22
77979;BME280;67169;50.268;8.694;2024-03-25T05:58:40;98895.19;;;2.87;96.48
77979;BME280;67169;50.268;8.694;2024-03-25T06:01:06;98910.03;;;2.96;96.49
77979;BME280;67169;50.268;8.694;2024-03-25T06:03:31;98903.78;;;3.00;96.34
77979;BME280;67169;50.268;8.694;2024-03-25T06:05:57;98807.06;;;2.26;96.33
77979;BME280;67169;50.268;8.694;2024-03-25T06:08:23;98877.59;;;2.81;96.30
77979;BME280;67169;50.268;8.694;2024-03-25T06:10:49;98909.03;;;3.03;96.32
77979;BME280;67169;50.268;8.694;2024-03-25T06:13:15;98908.00;;;3.08;96.63
77979;BME280;67169;50.268;8.694;2024-03-25T06:15:47;98904.41;;;3.11;96.58
77979;BME280;67169;50.268;8.694;2024-03-25T06:18:15;98868.63;;;2.87;96.28
77979;BME280;67169;50.268;8.694;2024-03-25T06:20:40;98889.28;;;3.13;95.97
77979;BME280;67169;50.268;8.694;2024-03-25T06:23:09;98709.94;;;2.21;95.67
77979;BME280;67169;50.268;8.694;2024-03-25T06:25:36;98882.16;;;3.17;95.61
77979;BME280;67169;50.268;8.694;2024-03-25T06:28:01;98768.22;;;2.64;95.40
77979;BME280;67169;50.268;8.694;2024-03-25T06:30:27;98854.53;;;3.24;95.34
77979;BME280;67169;50.268;8.694;2024-03-25T06:33:11;98895.69;;;3.45;95.22
77979;BME280;67169;50.268;8.694;2024-03-25T06:35:55;98910.59;;;3.52;94.91
77979;BME280;67169;50.268;8.694;2024-03-25T06:38:21;98905.13;;;3.58;94.62
77979;BME280;67169;50.268;8.694;2024-03-25T06:40:48;98913.13;;;3.56;94.24
77979;BME280;67169;50.268;8.694;2024-03-25T06:43:14;98918.56;;;3.52;94.20
77979;BME280;67169;50.268;8.694;2024-03-25T06:45:39;98808.91;;;3.05;93.70
77979;BME280;67169;50.268;8.694;2024-03-25T06:48:05;98905.34;;;3.85;93.51
77979;BME280;67169;50.268;8.694;2024-03-25T06:50:31;98906.41;;;4.13;93.13
77979;BME280;67169;50.268;8.694;2024-03-25T06:52:57;98916.50;;;4.35;92.59
77979;BME280;67169;50.268;8.694;2024-03-25T06:55:22;98893.22;;;4.09;91.75
77979;BME280;67169;50.268;8.694;2024-03-25T06:57:49;98911.91;;;4.40;91.48
77979;BME280;67169;50.268;8.694;2024-03-25T07:00:16;98903.63;;;4.18;90.61
77979;BME280;67169;50.268;8.694;2024-03-25T07:02:41;98890.03;;;4.28;90.06
77979;BME280;67169;50.268;8.694;2024-03-25T07:05:07;98911.00;;;4.41;89.32
77979;BME280;67169;50.268;8.694;2024-03-25T07:07:33;98912.22;;;4.60;89.18
77979;BME280;67169;50.268;8.694;2024-03-25T07:09:59;98900.31;;;4.73;88.25
77979;BME280;67169;50.268;8.694;2024-03-25T07:12:24;98899.16;;;4.84;87.97
77979;BME280;67169;50.268;8.694;2024-03-25T07:14:51;98870.31;;;4.68;87.07
77979;BME280;67169;50.268;8.694;2024-03-25T07:17:17;98892.16;;;4.80;86.67
77979;BME280;67169;50.268;8.694;2024-03-25T07:19:43;98904.38;;;4.87;86.56
77979;BME280;67169;50.268;8.694;2024-03-25T07:22:08;98810.63;;;4.44;86.25
77979;BME280;67169;50.268;8.694;2024-03-25T07:24:34;98889.25;;;4.89;85.46
77979;BME280;67169;50.268;8.694;2024-03-25T07:27:00;98894.03;;;5.07;85.24
77979;BME280;67169;50.268;8.694;2024-03-25T07:29:25;98858.13;;;4.89;84.50
77979;BME280;67169;50.268;8.694;2024-03-25T07:31:52;98895.94;;;5.32;84.36
77979;BME280;67169;50.268;8.694;2024-03-25T07:34:21;98849.66;;;5.06;83.85
77979;BME280;67169;50.268;8.694;2024-03-25T07:36:46;98893.28;;;5.32;83.16
77979;BME280;67169;50.268;8.694;2024-03-25T07:39:12;98863.53;;;5.16;82.98
77979;BME280;67169;50.268;8.694;2024-03-25T07:41:41;98916.31;;;5.34;82.64
77979;BME280;67169;50.268;8.694;2024-03-25T07:44:07;98896.78;;;5.34;82.51
77979;BME280;67169;50.268;8.694;2024-03-25T07:46:33;98898.22;;;5.44;81.94
77979;BME280;67169;50.268;8.694;2024-03-25T07:49:00;98891.34;;;5.37;81.61
77979;BME280;67169;50.268;8.694;2024-03-25T07:51:28;98895.81;;;5.92;81.39
77979;BME280;67169;50.268;8.694;2024-03-25T07:53:54;98901.56;;;6.32;79.87
77979;BME280;67169;50.268;8.694;2024-03-25T07:56:19;98895.38;;;6.81;79.73
77979;BME280;67169;50.268;8.694;2024-03-25T07:58:45;98877.03;;;7.41;77.96
77979;BME280;67169;50.268;8.694;2024-03-25T08:01:10;98847.53;;;6.97;76.44
77979;BME280;67169;50.268;8.694;2024-03-25T08:03:36;98866.34;;;6.71;75.74
77979;BME280;67169;50.268;8.694;2024-03-25T08:06:03;98873.19;;;6.54;76.03
77979;BME280;67169;50.268;8.694;2024-03-25T08:08:29;98848.06;;;6.10;76.81
77979;BME280;67169;50.268;8.694;2024-03-25T08:10:55;98883.53;;;6.13;77.50
77979;BME280;67169;50.268;8.694;2024-03-25T08:13:20;98900.59;;;6.09;77.83
77979;BME280;67169;50.268;8.694;2024-03-25T08:15:46;98900.22;;;6.20;77.49
77979;BME280;67169;50.268;8.694;2024-03-25T08:18:11;98894.31;;;6.10;77.15
77979;BME280;67169;50.268;8.694;2024-03-25T08:20:37;98890.91;;;6.05;76.63
77979;BME280;67169;50.268;8.694;2024-03-25T08:23:04;98886.31;;;6.10;76.06
77979;BME280;67169;50.268;8.694;2024-03-25T08:25:29;98889.16;;;6.06;76.31
77979;BME280;67169;50.268;8.694;2024-03-25T08:27:55;98865.25;;;6.01;75.89
77979;BME280;67169;50.268;8.694;2024-03-25T08:30:21;98885.09;;;6.19;76.02
77979;BME280;67169;50.268;8.694;2024-03-25T08:32:46;98872.47;;;6.24;74.43
77979;BME280;67169;50.268;8.694;2024-03-25T08:35:12;98864.56;;;6.46;73.62
77979;BME280;67169;50.268;8.694;2024-03-25T08:37:38;98863.53;;;6.50;72.25
77979;BME280;67169;50.268;8.694;2024-03-25T08:40:06;98858.09;;;6.77;72.08
77979;BME280;67169;50.268;8.694;2024-03-25T08:42:32;98842.59;;;6.86;70.69
77979;BME280;67169;50.268;8.694;2024-03-25T08:44:57;98845.56;;;6.79;70.44
77979;BME280;67169;50.268;8.694;2024-03-25T08:47:23;98844.78;;;6.52;70.12
77979;BME280;67169;50.268;8.694;2024-03-25T08:49:48;98856.94;;;6.84;70.13
77979;BME280;67169;50.268;8.694;2024-03-25T08:52:14;98847.59;;;6.96;69.16
77979;BME280;67169;50.268;8.694;2024-03-25T08:54:39;98828.13;;;7.59;67.27
77979;BME280;67169;50.268;8.694;2024-03-25T08:57:06;98815.06;;;7.52;64.69
77979;BME280;67169;50.268;8.694;2024-03-25T08:59:32;98810.28;;;8.02;63.75
77979;BME280;67169;50.268;8.694;2024-03-25T09:01:57;98826.75;;;8.54;64.43
77979;BME280;67169;50.268;8.694;2024-03-25T09:04:23;98814.38;;;8.52;62.04
77979;BME280;67169;50.268;8.694;2024-03-25T09:06:48;98805.72;;;9.03;61.46
77979;BME280;67169;50.268;8.694;2024-03-25T09:09:14;98807.28;;;9.45;58.99
77979;BME280;67169;50.268;8.694;2024-03-25T09:11:58;98808.25;;;9.98;58.52
77979;BME280;67169;50.268;8.694;2024-03-25T09:14:25;98811.97;;;9.95;57.60
77979;BME280;67169;50.268;8.694;2024-03-25T09:16:50;98821.09;;;9.74;57.54
77979;BME280;67169;50.268;8.694;2024-03-25T09:19:16;98815.44;;;9.25;57.99
77979;BME280;67169;50.268;8.694;2024-03-25T09:21:42;98834.28;;;9.42;60.87
77979;BME280;67169;50.268;8.694;2024-03-25T09:24:08;98796.06;;;9.37;59.50
77979;BME280;67169;50.268;8.694;2024-03-25T09:26:34;98811.66;;;9.84;57.86
77979;BME280;67169;50.268;8.694;2024-03-25T09:29:00;98801.53;;;10.24;56.84
77979;BME280;67169;50.268;8.694;2024-03-25T09:31:27;98797.25;;;9.68;56.77
77979;BME280;67169;50.268;8.694;2024-03-25T09:33:52;98801.47;;;10.08;57.32
77979;BME280;67169;50.268;8.694;2024-03-25T09:36:18;98812.09;;;10.62;58.19
77979;BME280;67169;50.268;8.694;2024-03-25T09:38:43;98799.25;;;11.32;56.05
77979;BME280;67169;50.268;8.694;2024-03-25T09:41:09;98769.16;;;11.09;55.51
77979;BME280;67169;50.268;8.694;2024-03-25T09:43:43;98796.88;;;10.78;56.08
77979;BME280;67169;50.268;8.694;2024-03-25T09:46:09;98798.06;;;10.22;56.91
77979;BME280;67169;50.268;8.694;2024-03-25T09:48:37;98796.97;;;10.26;56.96
77979;BME280;67169;50.268;8.694;2024-03-25T09:51:04;98816.44;;;9.41;59.01
77979;BME280;67169;50.268;8.694;2024-03-25T09:53:29;98804.88;;;10.29;59.52
77979;BME280;67169;50.268;8.694;2024-03-25T09:55:56;98791.34;;;9.96;58.51
77979;BME280;67169;50.268;8.694;2024-03-25T09:58:22;98813.81;;;10.63;59.29
77979;BME280;67169;50.268;8.694;2024-03-25T10:00:49;98789.47;;;10.33;57.19
77979;BME280;67169;50.268;8.694;2024-03-25T10:03:15;98776.06;;;10.82;56.44
77979;BME280;67169;50.268;8.694;2024-03-25T10:05:42;98771.47;;;11.31;56.24
77979;BME280;67169;50.268;8.694;2024-03-25T10:08:08;98767.19;;;10.80;55.30
77979;BME280;67169;50.268;8.694;2024-03-25T10:10:33;98706.28;;;10.63;54.77
77979;BME280;67169;50.268;8.694;2024-03-25T10:12:59;98761.63;;;11.62;54.55
77979;BME280;67169;50.268;8.694;2024-03-25T10:15:26;98761.59;;;11.94;54.01
77979;BME280;67169;50.268;8.694;2024-03-25T10:17:52;98763.53;;;11.76;54.05
77979;BME280;67169;50.268;8.694;2024-03-25T10:20:18;98761.81;;;12.49;55.08
77979;BME280;67169;50.268;8.694;2024-03-25T10:22:46;98738.53;;;11.58;53.99
77979;BME280;67169;50.268;8.694;2024-03-25T10:25:22;98744.28;;;11.52;53.98
77979;BME280;67169;50.268;8.694;2024-03-25T10:27:54;98742.66;;;11.79;53.45
77979;BME280;67169;50.268;8.694;2024-03-25T10:30:20;98742.44;;;12.43;53.59
77979;BME280;67169;50.268;8.694;2024-03-25T10:32:46;98730.38;;;12.20;52.45
77979;BME280;67169;50.268;8.694;2024-03-25T10:35:23;98741.09;;;12.64;54.89
77979;BME280;67169;50.268;8.694;2024-03-25T10:37:51;98715.16;;;12.62;53.03
77979;BME280;67169;50.268;8.694;2024-03-25T10:40:18;98725.47;;;12.55;52.28
77979;BME280;67169;50.268;8.694;2024-03-25T10:42:45;98722.03;;;12.67;51.31
77979;BME280;67169;50.268;8.694;2024-03-25T10:45:11;98706.56;;;11.68;51.12
77979;BME280;67169;50.268;8.694;2024-03-25T10:47:37;98724.63;;;12.26;52.64
77979;BME280;67169;50.268;8.694;2024-03-25T10:50:08;98716.25;;;12.73;51.68
77979;BME280;67169;50.268;8.694;2024-03-25T10:52:36;98723.88;;;13.22;50.93
77979;BME280;67169;50.268;8.694;2024-03-25T10:55:05;98720.44;;;13.47;52.44
77979;BME280;67169;50.268;8.694;2024-03-25T10:57:31;98713.31;;;13.59;51.75
77979;BME280;67169;50.268;8.694;2024-03-25T10:59:57;98699.91;;;13.85;50.20
77979;BME280;67169;50.268;8.694;2024-03-25T11:02:23;98692.88;;;13.01;49.54
77979;BME280;67169;50.268;8.694;2024-03-25T11:04:50;98688.41;;;13.00;49.81
77979;BME280;67169;50.268;8.694;2024-03-25T11:07:16;98700.16;;;12.57;52.11
77979;BME280;67169;50.268;8.694;2024-03-25T11:09:42;98708.59;;;12.80;53.42
77979;BME280;67169;50.268;8.694;2024-03-25T11:12:11;98700.66;;;12.50;54.49
77979;BME280;67169;50.268;8.694;2024-03-25T11:14:37;98713.50;;;13.02;55.61
77979;BME280;67169;50.268;8.694;2024-03-25T11:17:13;98676.84;;;13.12;56.06
77979;BME280;67169;50.268;8.694;2024-03-25T11:19:39;98719.75;;;13.44;55.99
77979;BME280;67169;50.268;8.694;2024-03-25T11:22:09;98687.63;;;13.26;53.66
77979;BME280;67169;50.268;8.694;2024-03-25T11:24:35;98706.25;;;13.44;54.37
77979;BME280;67169;50.268;8.694;2024-03-25T11:27:01;98689.34;;;13.13;52.64
77979;BME280;67169;50.268;8.694;2024-03-25T11:29:29;98683.00;;;12.30;51.80
77979;BME280;67169;50.268;8.694;2024-03-25T11:31:55;98684.84;;;12.15;52.69
77979;BME280;67169;50.268;8.694;2024-03-25T11:34:22;98697.34;;;12.30;54.33
77979;BME280;67169;50.268;8.694;2024-03-25T11:36:48;98677.53;;;12.60;52.66
77979;BME280;67169;50.268;8.694;2024-03-25T11:39:13;98675.88;;;12.15;52.62
77979;BME280;67169;50.268;8.694;2024-03-25T11:41:39;98671.22;;;11.58;52.71
77979;BME280;67169;50.268;8.694;2024-03-25T11:44:05;98675.94;;;11.84;53.44
77979;BME280;67169;50.268;8.694;2024-03-25T11:46:36;98674.44;;;12.38;53.05
77979;BME280;67169;50.268;8.694;2024-03-25T11:49:02;98657.97;;;11.99;51.81
77979;BME280;67169;50.268;8.694;2024-03-25T11:51:29;98655.94;;;13.01;51.60
77979;BME280;67169;50.268;8.694;2024-03-25T11:53:54;98638.84;;;13.15;50.50
77979;BME280;67169;50.268;8.694;2024-03-25T11:56:20;98640.56;;;13.16;50.62
77979;BME280;67169;50.268;8.694;2024-03-25T11:58:45;98636.16;;;13.55;50.62
77979;BME280;67169;50.268;8.694;2024-03-25T12:01:11;98630.28;;;14.01;50.45
77979;BME280;67169;50.268;8.694;2024-03-25T12:03:38;98622.31;;;14.75;49.29
77979;BME280;67169;50.268;8.694;2024-03-25T12:06:04;98568.19;;;14.12;47.71
77979;BME280;67169;50.268;8.694;2024-03-25T12:08:30;98609.41;;;13.90;48.09
77979;BME280;67169;50.268;8.694;2024-03-25T12:10:56;98603.34;;;14.25;48.67
77979;BME280;67169;50.268;8.694;2024-03-25T12:13:43;98609.41;;;14.03;48.41
77979;BME280;67169;50.268;8.694;2024-03-25T12:16:09;98613.94;;;14.15;49.41
77979;BME280;67169;50.268;8.694;2024-03-25T12:18:35;98599.97;;;13.83;48.49
77979;BME280;67169;50.268;8.694;2024-03-25T12:21:04;98588.13;;;13.73;48.87
77979;BME280;67169;50.268;8.694;2024-03-25T12:23:30;98586.91;;;14.15;48.50
77979;BME280;67169;50.268;8.694;2024-03-25T12:25:59;98591.13;;;14.19;48.66
77979;BME280;67169;50.268;8.694;2024-03-25T12:28:24;98577.84;;;13.91;47.87
77979;BME280;67169;50.268;8.694;2024-03-25T12:30:51;98572.50;;;14.28;47.67
77979;BME280;67169;50.268;8.694;2024-03-25T12:33:17;98551.81;;;14.52;46.17
77979;BME280;67169;50.268;8.694;2024-03-25T12:35:45;98558.25;;;15.10;46.47
77979;BME280;67169;50.268;8.694;2024-03-25T12:38:23;98456.78;;;14.20;46.88
77979;BME280;67169;50.268;8.694;2024-03-25T12:40:48;98545.38;;;14.04;46.99
77979;BME280;67169;50.268;8.694;2024-03-25T12:43:14;98529.91;;;14.06;47.95
77979;BME280;67169;50.268;8.694;2024-03-25T12:45:40;98544.66;;;14.51;48.99
77979;BME280;67169;50.268;8.694;2024-03-25T12:48:06;98534.94;;;14.96;48.31
77979;BME280;67169;50.268;8.694;2024-03-25T12:50:32;98517.84;;;14.72;47.50
77979;BME280;67169;50.268;8.694;2024-03-25T12:52:57;98541.91;;;14.88;48.27
77979;BME280;67169;50.268;8.694;2024-03-25T12:55:24;98530.03;;;15.26;47.29
77979;BME280;67169;50.268;8.694;2024-03-25T12:57:50;98511.75;;;14.81;45.40
77979;BME280;67169;50.268;8.694;2024-03-25T13:00:16;98528.69;;;16.11;47.71
77979;BME280;67169;50.268;8.694;2024-03-25T13:02:42;98508.13;;;14.93;45.20